sensor_id;sensor_type;location;lat;lon;timestamp;temperature;humidity
78516;SHT31;67815;51.990;5.688;2024-03-08T00:01:20;7.2;61.2
78516;SHT31;67815;51.990;5.688;2024-03-08T00:03:50;7.2;61.5
78516;SHT31;67815;51.990;5.688;2024-03-08T00:06:21;7.1;61.6
78516;SHT31;67815;51.990;5.688;2024-03-08T00:08:52;7.1;61.7
78516;SHT31;67815;51.990;5.688;2024-03-08T00:11:21;7.1;60.9
78516;SHT31;67815;51.990;5.688;2024-03-08T00:13:53;7.1;61.2
78516;SHT31;67815;51.990;5.688;2024-03-08T00:16:25;7.1;61.3
78516;SHT31;67815;51.990;5.688;2024-03-08T00:18:55;7.1;61.2
78516;SHT31;67815;51.990;5.688;2024-03-08T00:21:24;7.0;61.4
78516;SHT31;67815;51.990;5.688;2024-03-08T00:23:54;7.0;61.1
78516;SHT31;67815;51.990;5.688;2024-03-08T00:26:26;7.0;61.2
78516;SHT31;67815;51.990;5.688;2024-03-08T00:28:56;7.0;61.0
78516;SHT31;67815;51.990;5.688;2024-03-08T00:31:25;7.0;61.2
78516;SHT31;67815;51.990;5.688;2024-03-08T00:33:55;6.9;60.7
78516;SHT31;67815;51.990;5.688;2024-03-08T00:36:26;6.9;60.8
78516;SHT31;67815;51.990;5.688;2024-03-08T00:38:57;6.9;61.0
78516;SHT31;67815;51.990;5.688;2024-03-08T00:41:28;6.9;61.2
78516;SHT31;67815;51.990;5.688;2024-03-08T00:43:58;6.9;61.1
78516;SHT31;67815;51.990;5.688;2024-03-08T00:46:28;6.9;61.2
78516;SHT31;67815;51.990;5.688;2024-03-08T00:48:59;6.8;61.0
78516;SHT31;67815;51.990;5.688;2024-03-08T00:51:28;6.8;61.0
78516;SHT31;67815;51.990;5.688;2024-03-08T00:53:58;6.8;61.1
78516;SHT31;67815;51.990;5.688;2024-03-08T00:56:28;6.8;61.2
78516;SHT31;67815;51.990;5.688;2024-03-08T00:58:58;6.8;60.7
78516;SHT31;67815;51.990;5.688;2024-03-08T01:01:29;6.8;61.0
78516;SHT31;67815;51.990;5.688;2024-03-08T01:03:59;6.7;60.4
78516;SHT31;67815;51.990;5.688;2024-03-08T01:06:28;6.7;60.6
78516;SHT31;67815;51.990;5.688;2024-03-08T01:08:58;6.7;60.8
78516;SHT31;67815;51.990;5.688;2024-03-08T01:11:27;6.7;60.9
78516;SHT31;67815;51.990;5.688;2024-03-08T01:13:57;6.6;60.4
78516;SHT31;67815;51.990;5.688;2024-03-08T01:16:26;6.6;60.7
78516;SHT31;67815;51.990;5.688;2024-03-08T01:18:56;6.6;60.9
78516;SHT31;67815;51.990;5.688;2024-03-08T01:21:26;6.5;61.1
78516;SHT31;67815;51.990;5.688;2024-03-08T01:23:57;6.5;61.0
78516;SHT31;67815;51.990;5.688;2024-03-08T01:26:27;6.5;61.0
78516;SHT31;67815;51.990;5.688;2024-03-08T01:28:56;6.5;61.1
78516;SHT31;67815;51.990;5.688;2024-03-08T01:31:26;6.4;60.8
78516;SHT31;67815;51.990;5.688;2024-03-08T01:33:56;6.4;60.7
78516;SHT31;67815;51.990;5.688;2024-03-08T01:36:26;6.4;60.9
78516;SHT31;67815;51.990;5.688;2024-03-08T01:38:55;6.3;61.0
78516;SHT31;67815;51.990;5.688;2024-03-08T01:41:25;6.3;60.6
78516;SHT31;67815;51.990;5.688;2024-03-08T01:43:57;6.3;61.1
78516;SHT31;67815;51.990;5.688;2024-03-08T01:46:26;6.2;60.9
78516;SHT31;67815;51.990;5.688;2024-03-08T01:48:57;6.2;61.3
78516;SHT31;67815;51.990;5.688;2024-03-08T01:51:30;6.2;61.3
78516;SHT31;67815;51.990;5.688;2024-03-08T01:54:01;6.2;61.0
78516;SHT31;67815;51.990;5.688;2024-03-08T01:56:33;6.1;61.1
78516;SHT31;67815;51.990;5.688;2024-03-08T01:59:02;6.1;60.8
78516;SHT31;67815;51.990;5.688;2024-03-08T02:01:35;6.1;60.9
78516;SHT31;67815;51.990;5.688;2024-03-08T02:04:04;6.1;61.0
78516;SHT31;67815;51.990;5.688;2024-03-08T02:06:35;6.1;61.2
78516;SHT31;67815;51.990;5.688;2024-03-08T02:09:05;6.0;60.8
78516;SHT31;67815;51.990;5.688;2024-03-08T02:11:37;6.0;60.9
78516;SHT31;67815;51.990;5.688;2024-03-08T02:14:08;6.0;60.6
78516;SHT31;67815;51.990;5.688;2024-03-08T02:16:38;6.0;60.2
78516;SHT31;67815;51.990;5.688;2024-03-08T02:19:08;6.0;60.5
78516;SHT31;67815;51.990;5.688;2024-03-08T02:21:40;5.9;60.3
78516;SHT31;67815;51.990;5.688;2024-03-08T02:24:13;5.9;60.3
78516;SHT31;67815;51.990;5.688;2024-03-08T02:26:42;5.9;60.1
78516;SHT31;67815;51.990;5.688;2024-03-08T02:29:12;5.9;60.3
78516;SHT31;67815;51.990;5.688;2024-03-08T02:31:43;5.8;60.5
78516;SHT31;67815;51.990;5.688;2024-03-08T02:34:12;5.8;60.5
78516;SHT31;67815;51.990;5.688;2024-03-08T02:36:42;5.8;60.0
78516;SHT31;67815;51.990;5.688;2024-03-08T02:39:11;5.8;60.0
78516;SHT31;67815;51.990;5.688;2024-03-08T02:41:41;5.8;60.6
78516;SHT31;67815;51.990;5.688;2024-03-08T02:44:11;5.7;60.7
78516;SHT31;67815;51.990;5.688;2024-03-08T02:46:42;5.7;60.5
78516;SHT31;67815;51.990;5.688;2024-03-08T02:49:12;5.7;60.2
78516;SHT31;67815;51.990;5.688;2024-03-08T02:51:42;5.7;60.5
78516;SHT31;67815;51.990;5.688;2024-03-08T02:54:12;5.7;60.4
78516;SHT31;67815;51.990;5.688;2024-03-08T02:56:43;5.6;60.2
78516;SHT31;67815;51.990;5.688;2024-03-08T02:59:14;5.6;60.5
78516;SHT31;67815;51.990;5.688;2024-03-08T03:01:47;5.6;60.6
78516;SHT31;67815;51.990;5.688;2024-03-08T03:04:16;5.6;60.5
78516;SHT31;67815;51.990;5.688;2024-03-08T03:06:46;5.6;60.6
78516;SHT31;67815;51.990;5.688;2024-03-08T03:09:15;5.6;60.1
78516;SHT31;67815;51.990;5.688;2024-03-08T03:11:50;5.5;60.4
78516;SHT31;67815;51.990;5.688;2024-03-08T03:14:20;5.5;60.5
78516;SHT31;67815;51.990;5.688;2024-03-08T03:16:49;5.5;60.4
78516;SHT31;67815;51.990;5.688;2024-03-08T03:19:19;5.5;60.6
78516;SHT31;67815;51.990;5.688;2024-03-08T03:21:49;5.5;60.7
78516;SHT31;67815;51.990;5.688;2024-03-08T03:24:20;5.5;60.7
78516;SHT31;67815;51.990;5.688;2024-03-08T03:26:50;5.5;60.5
78516;SHT31;67815;51.990;5.688;2024-03-08T03:29:20;5.5;60.1
78516;SHT31;67815;51.990;5.688;2024-03-08T03:31:49;5.5;60.1
78516;SHT31;67815;51.990;5.688;2024-03-08T03:34:20;5.5;60.3
78516;SHT31;67815;51.990;5.688;2024-03-08T03:36:50;5.4;60.6
78516;SHT31;67815;51.990;5.688;2024-03-08T03:39:19;5.4;60.5
78516;SHT31;67815;51.990;5.688;2024-03-08T03:41:52;5.4;60.6
78516;SHT31;67815;51.990;5.688;2024-03-08T03:44:21;5.4;60.5
78516;SHT31;67815;51.990;5.688;2024-03-08T03:46:53;5.4;60.6
78516;SHT31;67815;51.990;5.688;2024-03-08T03:49:23;5.4;60.7
78516;SHT31;67815;51.990;5.688;2024-03-08T03:51:53;5.4;60.7
78516;SHT31;67815;51.990;5.688;2024-03-08T03:54:23;5.4;61.0
78516;SHT31;67815;51.990;5.688;2024-03-08T03:56:53;5.4;60.6
78516;SHT31;67815;51.990;5.688;2024-03-08T03:59:23;5.3;60.8
78516;SHT31;67815;51.990;5.688;2024-03-08T04:01:53;5.3;61.1
78516;SHT31;67815;51.990;5.688;2024-03-08T04:04:23;5.3;60.5
78516;SHT31;67815;51.990;5.688;2024-03-08T04:06:53;5.3;60.5
78516;SHT31;67815;51.990;5.688;2024-03-08T04:09:23;5.3;60.7
78516;SHT31;67815;51.990;5.688;2024-03-08T04:11:52;5.3;60.8
78516;SHT31;67815;51.990;5.688;2024-03-08T04:14:23;5.3;60.6
78516;SHT31;67815;51.990;5.688;2024-03-08T04:16:54;5.3;60.6
78516;SHT31;67815;51.990;5.688;2024-03-08T04:19:24;5.3;60.7
78516;SHT31;67815;51.990;5.688;2024-03-08T04:21:55;5.2;60.7
78516;SHT31;67815;51.990;5.688;2024-03-08T04:24:25;5.2;60.8
78516;SHT31;67815;51.990;5.688;2024-03-08T04:26:56;5.2;60.3
78516;SHT31;67815;51.990;5.688;2024-03-08T04:29:26;5.2;60.6
78516;SHT31;67815;51.990;5.688;2024-03-08T04:31:56;5.2;60.8
78516;SHT31;67815;51.990;5.688;2024-03-08T04:34:28;5.2;60.5
78516;SHT31;67815;51.990;5.688;2024-03-08T04:36:59;5.2;60.8
78516;SHT31;67815;51.990;5.688;2024-03-08T04:39:29;5.2;60.3
78516;SHT31;67815;51.990;5.688;2024-03-08T04:42:02;5.2;61.0
78516;SHT31;67815;51.990;5.688;2024-03-08T04:44:34;5.2;61.0
78516;SHT31;67815;51.990;5.688;2024-03-08T04:47:04;5.1;60.7
78516;SHT31;67815;51.990;5.688;2024-03-08T04:49:34;5.1;60.5
78516;SHT31;67815;51.990;5.688;2024-03-08T04:52:05;5.1;61.2
78516;SHT31;67815;51.990;5.688;2024-03-08T04:54:34;5.1;60.9
78516;SHT31;67815;51.990;5.688;2024-03-08T04:57:05;5.1;60.9
78516;SHT31;67815;51.990;5.688;2024-03-08T04:59:35;5.1;60.9
78516;SHT31;67815;51.990;5.688;2024-03-08T05:02:07;5.1;61.1
78516;SHT31;67815;51.990;5.688;2024-03-08T05:04:38;5.1;60.9
78516;SHT31;67815;51.990;5.688;2024-03-08T05:07:10;5.1;60.8
78516;SHT31;67815;51.990;5.688;2024-03-08T05:09:39;5.1;60.9
78516;SHT31;67815;51.990;5.688;2024-03-08T05:12:09;5.1;60.9
78516;SHT31;67815;51.990;5.688;2024-03-08T05:14:39;5.1;60.8
78516;SHT31;67815;51.990;5.688;2024-03-08T05:17:08;5.1;61.0
78516;SHT31;67815;51.990;5.688;2024-03-08T05:19:38;5.1;61.1
78516;SHT31;67815;51.990;5.688;2024-03-08T05:22:08;5.0;61.0
78516;SHT31;67815;51.990;5.688;2024-03-08T05:24:37;5.0;61.2
78516;SHT31;67815;51.990;5.688;2024-03-08T05:27:07;5.0;60.9
78516;SHT31;67815;51.990;5.688;2024-03-08T05:29:36;5.0;60.4
78516;SHT31;67815;51.990;5.688;2024-03-08T05:32:08;5.0;60.6
78516;SHT31;67815;51.990;5.688;2024-03-08T05:34:37;5.0;60.9
78516;SHT31;67815;51.990;5.688;2024-03-08T05:37:07;5.0;60.8
78516;SHT31;67815;51.990;5.688;2024-03-08T05:39:38;5.0;60.8
78516;SHT31;67815;51.990;5.688;2024-03-08T05:42:08;5.0;61.1
78516;SHT31;67815;51.990;5.688;2024-03-08T05:44:38;4.9;60.8
78516;SHT31;67815;51.990;5.688;2024-03-08T05:47:08;4.9;61.1
78516;SHT31;67815;51.990;5.688;2024-03-08T05:49:38;4.9;60.5
78516;SHT31;67815;51.990;5.688;2024-03-08T05:52:08;4.9;61.0
78516;SHT31;67815;51.990;5.688;2024-03-08T05:54:38;4.9;60.9
78516;SHT31;67815;51.990;5.688;2024-03-08T05:57:08;4.9;60.9
78516;SHT31;67815;51.990;5.688;2024-03-08T05:59:38;4.9;61.4
78516;SHT31;67815;51.990;5.688;2024-03-08T06:02:07;4.8;61.7
78516;SHT31;67815;51.990;5.688;2024-03-08T06:04:37;4.8;61.9
78516;SHT31;67815;51.990;5.688;2024-03-08T06:07:10;4.8;61.3
78516;SHT31;67815;51.990;5.688;2024-03-08T06:09:40;4.8;62.0
78516;SHT31;67815;51.990;5.688;2024-03-08T06:12:12;4.8;61.7
78516;SHT31;67815;51.990;5.688;2024-03-08T06:14:46;4.8;61.4
78516;SHT31;67815;51.990;5.688;2024-03-08T06:17:16;4.8;61.7
78516;SHT31;67815;51.990;5.688;2024-03-08T06:19:46;4.8;61.8
78516;SHT31;67815;51.990;5.688;2024-03-08T06:22:16;4.8;61.9
78516;SHT31;67815;51.990;5.688;2024-03-08T06:24:46;4.8;61.5
78516;SHT31;67815;51.990;5.688;2024-03-08T06:27:16;4.8;60.9
78516;SHT31;67815;51.990;5.688;2024-03-08T06:29:45;4.7;61.3
78516;SHT31;67815;51.990;5.688;2024-03-08T06:32:16;4.7;61.2
78516;SHT31;67815;51.990;5.688;2024-03-08T06:34:46;4.7;61.5
78516;SHT31;67815;51.990;5.688;2024-03-08T06:37:19;4.7;61.2
78516;SHT31;67815;51.990;5.688;2024-03-08T06:39:51;4.7;61.5
78516;SHT31;67815;51.990;5.688;2024-03-08T06:42:22;4.7;61.4
78516;SHT31;67815;51.990;5.688;2024-03-08T06:44:52;4.7;61.5
78516;SHT31;67815;51.990;5.688;2024-03-08T06:47:23;4.7;61.0
78516;SHT31;67815;51.990;5.688;2024-03-08T06:49:53;4.7;61.3
78516;SHT31;67815;51.990;5.688;2024-03-08T06:52:23;4.7;61.5
78516;SHT31;67815;51.990;5.688;2024-03-08T06:54:53;4.7;61.4
78516;SHT31;67815;51.990;5.688;2024-03-08T06:57:24;4.7;61.5
78516;SHT31;67815;51.990;5.688;2024-03-08T06:59:54;4.8;61.8
78516;SHT31;67815;51.990;5.688;2024-03-08T07:02:24;4.8;61.3
78516;SHT31;67815;51.990;5.688;2024-03-08T07:04:55;4.8;60.8
78516;SHT31;67815;51.990;5.688;2024-03-08T07:07:26;4.8;60.8
78516;SHT31;67815;51.990;5.688;2024-03-08T07:09:57;4.8;61.6
78516;SHT31;67815;51.990;5.688;2024-03-08T07:12:27;4.8;61.8
78516;SHT31;67815;51.990;5.688;2024-03-08T07:14:57;4.8;61.2
78516;SHT31;67815;51.990;5.688;2024-03-08T07:17:26;4.8;61.4
78516;SHT31;67815;51.990;5.688;2024-03-08T07:19:56;4.8;61.4
78516;SHT31;67815;51.990;5.688;2024-03-08T07:22:27;4.8;60.8
78516;SHT31;67815;51.990;5.688;2024-03-08T07:24:57;4.8;60.8
78516;SHT31;67815;51.990;5.688;2024-03-08T07:27:32;4.9;61.8
78516;SHT31;67815;51.990;5.688;2024-03-08T07:30:04;4.9;61.2
78516;SHT31;67815;51.990;5.688;2024-03-08T07:32:34;4.9;60.5
78516;SHT31;67815;51.990;5.688;2024-03-08T07:35:04;4.9;61.0
78516;SHT31;67815;51.990;5.688;2024-03-08T07:37:34;4.9;60.9
78516;SHT31;67815;51.990;5.688;2024-03-08T07:40:06;5.0;60.8
78516;SHT31;67815;51.990;5.688;2024-03-08T07:42:36;5.0;61.2
78516;SHT31;67815;51.990;5.688;2024-03-08T07:45:07;5.0;60.5
78516;SHT31;67815;51.990;5.688;2024-03-08T07:47:37;5.0;60.4
78516;SHT31;67815;51.990;5.688;2024-03-08T07:50:10;5.1;61.5
78516;SHT31;67815;51.990;5.688;2024-03-08T07:52:43;5.1;61.1
78516;SHT31;67815;51.990;5.688;2024-03-08T07:55:13;5.1;60.3
78516;SHT31;67815;51.990;5.688;2024-03-08T07:57:43;5.1;61.0
78516;SHT31;67815;51.990;5.688;2024-03-08T08:00:14;5.2;60.3
78516;SHT31;67815;51.990;5.688;2024-03-08T08:02:46;5.2;59.6
78516;SHT31;67815;51.990;5.688;2024-03-08T08:05:17;5.2;60.2
78516;SHT31;67815;51.990;5.688;2024-03-08T08:07:49;5.2;59.9
78516;SHT31;67815;51.990;5.688;2024-03-08T08:10:21;5.2;60.1
78516;SHT31;67815;51.990;5.688;2024-03-08T08:12:52;5.3;60.0
78516;SHT31;67815;51.990;5.688;2024-03-08T08:15:23;5.3;59.9
78516;SHT31;67815;51.990;5.688;2024-03-08T08:17:52;5.3;59.9
78516;SHT31;67815;51.990;5.688;2024-03-08T08:20:22;5.3;59.8
78516;SHT31;67815;51.990;5.688;2024-03-08T08:22:53;5.4;59.2
78516;SHT31;67815;51.990;5.688;2024-03-08T08:25:24;5.4;59.2
78516;SHT31;67815;51.990;5.688;2024-03-08T08:27:53;5.4;59.4
78516;SHT31;67815;51.990;5.688;2024-03-08T08:30:23;5.5;59.3
78516;SHT31;67815;51.990;5.688;2024-03-08T08:32:53;5.5;59.4
78516;SHT31;67815;51.990;5.688;2024-03-08T08:35:25;5.5;59.5
78516;SHT31;67815;51.990;5.688;2024-03-08T08:37:56;5.6;59.4
78516;SHT31;67815;51.990;5.688;2024-03-08T08:40:26;5.6;59.1
78516;SHT31;67815;51.990;5.688;2024-03-08T08:42:58;5.7;60.4
78516;SHT31;67815;51.990;5.688;2024-03-08T08:45:31;5.7;60.4
78516;SHT31;67815;51.990;5.688;2024-03-08T08:48:00;5.7;59.1
78516;SHT31;67815;51.990;5.688;2024-03-08T08:50:33;5.8;59.6
78516;SHT31;67815;51.990;5.688;2024-03-08T08:53:03;5.8;59.0
78516;SHT31;67815;51.990;5.688;2024-03-08T08:55:34;5.9;58.7
78516;SHT31;67815;51.990;5.688;2024-03-08T08:58:04;5.9;58.3
78516;SHT31;67815;51.990;5.688;2024-03-08T09:00:35;6.0;58.5
78516;SHT31;67815;51.990;5.688;2024-03-08T09:03:07;6.0;58.2
78516;SHT31;67815;51.990;5.688;2024-03-08T09:05:38;6.1;58.9
78516;SHT31;67815;51.990;5.688;2024-03-08T09:08:10;6.1;58.3
78516;SHT31;67815;51.990;5.688;2024-03-08T09:10:42;6.2;58.2
78516;SHT31;67815;51.990;5.688;2024-03-08T09:13:12;6.2;59.0
78516;SHT31;67815;51.990;5.688;2024-03-08T09:15:42;6.3;58.6
78516;SHT31;67815;51.990;5.688;2024-03-08T09:18:13;6.3;58.9
78516;SHT31;67815;51.990;5.688;2024-03-08T09:20:43;6.5;59.3
78516;SHT31;67815;51.990;5.688;2024-03-08T09:23:13;6.6;59.1
78516;SHT31;67815;51.990;5.688;2024-03-08T09:25:44;6.8;58.7
78516;SHT31;67815;51.990;5.688;2024-03-08T09:28:14;7.0;57.5
78516;SHT31;67815;51.990;5.688;2024-03-08T09:30:44;7.1;57.6
78516;SHT31;67815;51.990;5.688;2024-03-08T09:33:16;7.2;57.0
78516;SHT31;67815;51.990;5.688;2024-03-08T09:35:47;7.3;56.2
78516;SHT31;67815;51.990;5.688;2024-03-08T09:38:18;7.4;57.1
78516;SHT31;67815;51.990;5.688;2024-03-08T09:40:48;7.5;56.3
78516;SHT31;67815;51.990;5.688;2024-03-08T09:43:18;7.6;56.8
78516;SHT31;67815;51.990;5.688;2024-03-08T09:45:49;7.6;55.6
78516;SHT31;67815;51.990;5.688;2024-03-08T09:48:19;7.7;56.0
78516;SHT31;67815;51.990;5.688;2024-03-08T09:50:49;7.7;56.2
78516;SHT31;67815;51.990;5.688;2024-03-08T09:53:19;7.7;55.8
78516;SHT31;67815;51.990;5.688;2024-03-08T09:55:52;7.7;56.1
78516;SHT31;67815;51.990;5.688;2024-03-08T09:58:21;7.7;56.8
78516;SHT31;67815;51.990;5.688;2024-03-08T10:01:10;7.7;56.0
78516;SHT31;67815;51.990;5.688;2024-03-08T10:03:42;7.7;56.1
78516;SHT31;67815;51.990;5.688;2024-03-08T10:06:12;7.7;56.0
78516;SHT31;67815;51.990;5.688;2024-03-08T10:08:43;7.7;56.3
78516;SHT31;67815;51.990;5.688;2024-03-08T10:11:13;7.7;55.8
78516;SHT31;67815;51.990;5.688;2024-03-08T10:13:44;7.7;55.9
78516;SHT31;67815;51.990;5.688;2024-03-08T10:16:15;7.7;55.8
78516;SHT31;67815;51.990;5.688;2024-03-08T10:18:47;7.7;57.0
78516;SHT31;67815;51.990;5.688;2024-03-08T10:21:16;7.7;57.2
78516;SHT31;67815;51.990;5.688;2024-03-08T10:23:46;7.7;57.4
78516;SHT31;67815;51.990;5.688;2024-03-08T10:26:17;7.8;55.8
78516;SHT31;67815;51.990;5.688;2024-03-08T10:28:50;7.8;56.5
78516;SHT31;67815;51.990;5.688;2024-03-08T10:31:20;7.8;56.8
78516;SHT31;67815;51.990;5.688;2024-03-08T10:33:50;7.8;57.5
78516;SHT31;67815;51.990;5.688;2024-03-08T10:36:20;7.9;57.2
78516;SHT31;67815;51.990;5.688;2024-03-08T10:38:52;7.9;55.9
78516;SHT31;67815;51.990;5.688;2024-03-08T10:41:24;8.0;56.3
78516;SHT31;67815;51.990;5.688;2024-03-08T10:44:06;8.0;56.2
78516;SHT31;67815;51.990;5.688;2024-03-08T10:46:52;8.1;56.0
78516;SHT31;67815;51.990;5.688;2024-03-08T10:49:31;8.1;55.6
78516;SHT31;67815;51.990;5.688;2024-03-08T10:52:04;8.2;55.2
78516;SHT31;67815;51.990;5.688;2024-03-08T10:54:37;8.3;55.7
78516;SHT31;67815;51.990;5.688;2024-03-08T10:57:08;8.3;56.7
78516;SHT31;67815;51.990;5.688;2024-03-08T10:59:41;8.4;55.3
78516;SHT31;67815;51.990;5.688;2024-03-08T11:02:12;8.4;55.7
78516;SHT31;67815;51.990;5.688;2024-03-08T11:04:49;8.5;54.7
78516;SHT31;67815;51.990;5.688;2024-03-08T11:07:20;8.6;55.2
78516;SHT31;67815;51.990;5.688;2024-03-08T11:09:50;8.6;53.9
78516;SHT31;67815;51.990;5.688;2024-03-08T11:12:28;8.7;54.5
78516;SHT31;67815;51.990;5.688;2024-03-08T11:15:02;8.7;56.1
78516;SHT31;67815;51.990;5.688;2024-03-08T11:17:47;8.8;54.9
78516;SHT31;67815;51.990;5.688;2024-03-08T11:20:19;8.9;54.4
78516;SHT31;67815;51.990;5.688;2024-03-08T11:22:51;8.9;53.4
78516;SHT31;67815;51.990;5.688;2024-03-08T11:25:39;9.0;54.0
78516;SHT31;67815;51.990;5.688;2024-03-08T11:28:13;9.0;53.9
78516;SHT31;67815;51.990;5.688;2024-03-08T11:33:41;9.1;53.2
78516;SHT31;67815;51.990;5.688;2024-03-08T11:36:13;9.2;52.1
78516;SHT31;67815;51.990;5.688;2024-03-08T11:38:45;9.3;51.9
78516;SHT31;67815;51.990;5.688;2024-03-08T11:41:17;9.3;52.1
78516;SHT31;67815;51.990;5.688;2024-03-08T11:43:47;9.4;50.7
78516;SHT31;67815;51.990;5.688;2024-03-08T11:46:18;9.4;52.0
78516;SHT31;67815;51.990;5.688;2024-03-08T11:48:48;9.5;53.0
78516;SHT31;67815;51.990;5.688;2024-03-08T11:51:20;9.5;51.7
78516;SHT31;67815;51.990;5.688;2024-03-08T11:53:51;9.6;51.7
78516;SHT31;67815;51.990;5.688;2024-03-08T11:56:22;9.7;52.6
78516;SHT31;67815;51.990;5.688;2024-03-08T11:58:55;9.8;50.6
78516;SHT31;67815;51.990;5.688;2024-03-08T12:01:26;9.8;50.8
78516;SHT31;67815;51.990;5.688;2024-03-08T12:03:57;9.9;50.5
78516;SHT31;67815;51.990;5.688;2024-03-08T12:06:38;9.9;50.8
78516;SHT31;67815;51.990;5.688;2024-03-08T12:09:11;10.0;51.3
78516;SHT31;67815;51.990;5.688;2024-03-08T12:11:42;10.1;50.8
78516;SHT31;67815;51.990;5.688;2024-03-08T12:14:14;10.1;50.0
78516;SHT31;67815;51.990;5.688;2024-03-08T12:16:46;10.2;48.7
78516;SHT31;67815;51.990;5.688;2024-03-08T12:19:16;10.2;50.2
78516;SHT31;67815;51.990;5.688;2024-03-08T12:21:47;10.3;51.2
78516;SHT31;67815;51.990;5.688;2024-03-08T12:24:20;10.3;48.1
78516;SHT31;67815;51.990;5.688;2024-03-08T12:26:50;10.4;47.2
78516;SHT31;67815;51.990;5.688;2024-03-08T12:29:23;10.4;47.5
78516;SHT31;67815;51.990;5.688;2024-03-08T12:31:57;10.4;48.9
78516;SHT31;67815;51.990;5.688;2024-03-08T12:34:28;10.4;49.4
78516;SHT31;67815;51.990;5.688;2024-03-08T12:37:01;10.5;47.8
78516;SHT31;67815;51.990;5.688;2024-03-08T12:39:34;10.5;48.6
78516;SHT31;67815;51.990;5.688;2024-03-08T12:42:06;10.5;47.5
78516;SHT31;67815;51.990;5.688;2024-03-08T12:44:38;10.6;48.8
78516;SHT31;67815;51.990;5.688;2024-03-08T12:47:11;10.6;46.8
78516;SHT31;67815;51.990;5.688;2024-03-08T12:49:40;10.6;46.7
78516;SHT31;67815;51.990;5.688;2024-03-08T12:52:12;10.6;47.7
78516;SHT31;67815;51.990;5.688;2024-03-08T12:54:45;10.6;47.8
78516;SHT31;67815;51.990;5.688;2024-03-08T12:57:17;10.7;47.8
78516;SHT31;67815;51.990;5.688;2024-03-08T12:59:47;10.7;46.9
78516;SHT31;67815;51.990;5.688;2024-03-08T13:02:18;10.7;47.1
78516;SHT31;67815;51.990;5.688;2024-03-08T13:04:49;10.7;48.9
78516;SHT31;67815;51.990;5.688;2024-03-08T13:07:26;10.8;48.4
78516;SHT31;67815;51.990;5.688;2024-03-08T13:09:55;10.8;48.7
78516;SHT31;67815;51.990;5.688;2024-03-08T13:12:27;10.8;48.2
78516;SHT31;67815;51.990;5.688;2024-03-08T13:14:58;10.8;49.1
78516;SHT31;67815;51.990;5.688;2024-03-08T13:17:28;10.8;48.8
78516;SHT31;67815;51.990;5.688;2024-03-08T13:20:00;10.9;47.3
78516;SHT31;67815;51.990;5.688;2024-03-08T13:22:32;10.9;47.8
78516;SHT31;67815;51.990;5.688;2024-03-08T13:25:02;10.9;47.8
78516;SHT31;67815;51.990;5.688;2024-03-08T13:27:32;10.9;47.7
78516;SHT31;67815;51.990;5.688;2024-03-08T13:30:05;11.0;47.5
78516;SHT31;67815;51.990;5.688;2024-03-08T13:32:38;11.0;47.9
78516;SHT31;67815;51.990;5.688;2024-03-08T13:35:11;11.0;47.6
78516;SHT31;67815;51.990;5.688;2024-03-08T13:37:42;11.0;48.4
78516;SHT31;67815;51.990;5.688;2024-03-08T13:40:12;11.0;47.9
78516;SHT31;67815;51.990;5.688;2024-03-08T13:42:46;11.1;48.2
78516;SHT31;67815;51.990;5.688;2024-03-08T13:45:17;11.1;48.2
78516;SHT31;67815;51.990;5.688;2024-03-08T13:47:49;11.1;49.1
78516;SHT31;67815;51.990;5.688;2024-03-08T13:50:19;11.1;48.9
78516;SHT31;67815;51.990;5.688;2024-03-08T13:52:51;11.1;48.9
78516;SHT31;67815;51.990;5.688;2024-03-08T13:55:21;11.2;49.0
78516;SHT31;67815;51.990;5.688;2024-03-08T13:57:53;11.2;47.5
78516;SHT31;67815;51.990;5.688;2024-03-08T14:00:24;11.2;48.4
78516;SHT31;67815;51.990;5.688;2024-03-08T14:02:55;11.2;48.9
78516;SHT31;67815;51.990;5.688;2024-03-08T14:05:26;11.2;47.6
78516;SHT31;67815;51.990;5.688;2024-03-08T14:07:59;11.3;46.8
78516;SHT31;67815;51.990;5.688;2024-03-08T14:10:31;11.3;47.0
78516;SHT31;67815;51.990;5.688;2024-03-08T14:13:04;11.3;46.2
78516;SHT31;67815;51.990;5.688;2024-03-08T14:15:35;11.3;47.5
78516;SHT31;67815;51.990;5.688;2024-03-08T14:18:09;11.3;48.2
78516;SHT31;67815;51.990;5.688;2024-03-08T14:20:40;11.3;49.1
78516;SHT31;67815;51.990;5.688;2024-03-08T14:23:14;11.3;48.3
78516;SHT31;67815;51.990;5.688;2024-03-08T14:25:43;11.3;47.4
78516;SHT31;67815;51.990;5.688;2024-03-08T14:28:13;11.3;47.5
78516;SHT31;67815;51.990;5.688;2024-03-08T14:30:43;11.3;48.0
78516;SHT31;67815;51.990;5.688;2024-03-08T14:33:13;11.4;47.5
78516;SHT31;67815;51.990;5.688;2024-03-08T14:35:44;11.4;47.8
78516;SHT31;67815;51.990;5.688;2024-03-08T14:38:15;11.4;48.6
78516;SHT31;67815;51.990;5.688;2024-03-08T14:40:45;11.4;47.4
78516;SHT31;67815;51.990;5.688;2024-03-08T14:43:16;11.4;45.8
78516;SHT31;67815;51.990;5.688;2024-03-08T14:45:47;11.5;46.6
78516;SHT31;67815;51.990;5.688;2024-03-08T14:48:18;11.5;47.7
78516;SHT31;67815;51.990;5.688;2024-03-08T14:50:49;11.5;46.5
78516;SHT31;67815;51.990;5.688;2024-03-08T14:53:19;11.5;47.1
78516;SHT31;67815;51.990;5.688;2024-03-08T14:55:51;11.5;47.1
78516;SHT31;67815;51.990;5.688;2024-03-08T14:58:20;11.5;47.7
78516;SHT31;67815;51.990;5.688;2024-03-08T15:00:52;11.5;47.5
78516;SHT31;67815;51.990;5.688;2024-03-08T15:03:24;11.5;49.0
78516;SHT31;67815;51.990;5.688;2024-03-08T15:05:54;11.6;47.2
78516;SHT31;67815;51.990;5.688;2024-03-08T15:08:24;11.6;46.1
78516;SHT31;67815;51.990;5.688;2024-03-08T15:10:54;11.6;45.7
78516;SHT31;67815;51.990;5.688;2024-03-08T15:13:26;11.6;45.9
78516;SHT31;67815;51.990;5.688;2024-03-08T15:16:04;11.6;46.0
78516;SHT31;67815;51.990;5.688;2024-03-08T15:18:35;11.6;46.4
78516;SHT31;67815;51.990;5.688;2024-03-08T15:21:06;11.6;46.6
78516;SHT31;67815;51.990;5.688;2024-03-08T15:23:37;11.6;47.3
78516;SHT31;67815;51.990;5.688;2024-03-08T15:26:11;11.6;47.1
78516;SHT31;67815;51.990;5.688;2024-03-08T15:28:40;11.6;46.5
78516;SHT31;67815;51.990;5.688;2024-03-08T15:31:13;11.6;45.7
78516;SHT31;67815;51.990;5.688;2024-03-08T15:33:42;11.6;46.2
78516;SHT31;67815;51.990;5.688;2024-03-08T15:36:15;11.6;47.5
78516;SHT31;67815;51.990;5.688;2024-03-08T15:38:48;11.6;47.5
78516;SHT31;67815;51.990;5.688;2024-03-08T15:41:18;11.6;46.1
78516;SHT31;67815;51.990;5.688;2024-03-08T15:43:48;11.6;46.9
78516;SHT31;67815;51.990;5.688;2024-03-08T15:46:18;11.6;46.1
78516;SHT31;67815;51.990;5.688;2024-03-08T15:48:50;11.6;47.6
78516;SHT31;67815;51.990;5.688;2024-03-08T15:51:21;11.6;46.5
78516;SHT31;67815;51.990;5.688;2024-03-08T15:53:52;11.6;47.5
78516;SHT31;67815;51.990;5.688;2024-03-08T15:56:23;11.6;47.0
78516;SHT31;67815;51.990;5.688;2024-03-08T15:58:53;11.6;47.7
78516;SHT31;67815;51.990;5.688;2024-03-08T16:01:23;11.6;46.8
78516;SHT31;67815;51.990;5.688;2024-03-08T16:03:53;11.6;46.1
78516;SHT31;67815;51.990;5.688;2024-03-08T16:06:25;11.6;46.7
78516;SHT31;67815;51.990;5.688;2024-03-08T16:08:56;11.5;47.0
78516;SHT31;67815;51.990;5.688;2024-03-08T16:11:28;11.5;47.3
78516;SHT31;67815;51.990;5.688;2024-03-08T16:14:00;11.5;46.9
78516;SHT31;67815;51.990;5.688;2024-03-08T16:16:31;11.5;46.2
78516;SHT31;67815;51.990;5.688;2024-03-08T16:19:01;11.5;47.0
78516;SHT31;67815;51.990;5.688;2024-03-08T16:21:35;11.5;46.8
78516;SHT31;67815;51.990;5.688;2024-03-08T16:24:05;11.4;46.4
78516;SHT31;67815;51.990;5.688;2024-03-08T16:26:38;11.4;46.5
78516;SHT31;67815;51.990;5.688;2024-03-08T16:29:08;11.4;45.9
78516;SHT31;67815;51.990;5.688;2024-03-08T16:31:41;11.4;46.4
78516;SHT31;67815;51.990;5.688;2024-03-08T16:34:14;11.3;46.0
78516;SHT31;67815;51.990;5.688;2024-03-08T16:36:46;11.3;47.0
78516;SHT31;67815;51.990;5.688;2024-03-08T16:39:16;11.3;46.8
78516;SHT31;67815;51.990;5.688;2024-03-08T16:41:45;11.2;47.0